createdAt,value
2023-04-04T00:00:45.943Z,2.82
2023-04-04T00:03:16.839Z,2.83
2023-04-04T00:05:47.940Z,2.85
2023-04-04T00:08:18.714Z,2.87
2023-04-04T00:10:49.450Z,2.86
2023-04-04T00:13:20.261Z,2.81
2023-04-04T00:15:50.925Z,2.89
2023-04-04T00:18:21.775Z,2.85
2023-04-04T00:20:52.417Z,2.88
2023-04-04T00:23:23.143Z,2.85
2023-04-04T00:25:54.401Z,2.85
2023-04-04T00:28:25.069Z,2.86
2023-04-04T00:30:55.895Z,2.87
2023-04-04T00:33:27.362Z,2.84
2023-04-04T00:35:58.697Z,2.82
2023-04-04T00:38:30.533Z,2.77
2023-04-04T00:41:01.704Z,2.73
2023-04-04T00:43:33.376Z,2.73
2023-04-04T00:46:04.495Z,2.71
2023-04-04T00:48:39.270Z,2.70
2023-04-04T00:51:10.361Z,2.65
2023-04-04T00:53:41.906Z,2.63
2023-04-04T00:56:13.410Z,2.62
2023-04-04T00:58:45.183Z,2.61
2023-04-04T01:01:16.178Z,2.59
2023-04-04T01:03:47.073Z,2.57
2023-04-04T01:06:18.129Z,2.54
2023-04-04T01:08:50.320Z,2.53
2023-04-04T01:11:21.369Z,2.51
2023-04-04T01:13:52.175Z,2.49
2023-04-04T01:16:24.202Z,2.47
2023-04-04T01:18:57.503Z,2.44
2023-04-04T01:21:30.004Z,2.43
2023-04-04T01:24:04.351Z,2.44
2023-04-04T01:26:48.752Z,2.44
2023-04-04T01:29:20.203Z,2.43
2023-04-04T01:31:57.613Z,2.40
2023-04-04T01:34:39.120Z,2.45
2023-04-04T01:37:20.253Z,2.43
2023-04-04T01:39:54.755Z,2.44
2023-04-04T01:42:27.942Z,2.45
2023-04-04T01:45:00.247Z,2.48
2023-04-04T01:47:42.668Z,2.50
2023-04-04T01:50:19.014Z,2.48
2023-04-04T01:52:50.166Z,2.47
2023-04-04T01:55:21.868Z,2.47
2023-04-04T01:57:52.542Z,2.45
2023-04-04T02:00:23.428Z,2.42
2023-04-04T02:02:54.128Z,2.42
2023-04-04T02:05:24.848Z,2.39
2023-04-04T02:07:55.837Z,2.36
2023-04-04T02:10:32.313Z,2.32
2023-04-04T02:13:02.989Z,2.29
2023-04-04T02:15:34.416Z,2.38
2023-04-04T02:18:05.464Z,2.38
2023-04-04T02:20:36.194Z,2.39
2023-04-04T02:23:06.914Z,2.43
2023-04-04T02:25:37.803Z,2.49
2023-04-04T02:28:08.565Z,2.49
2023-04-04T02:30:39.458Z,2.49
2023-04-04T02:33:10.440Z,2.48
2023-04-04T02:35:41.707Z,2.51
2023-04-04T02:38:12.448Z,2.52
2023-04-04T02:40:48.010Z,2.53
2023-04-04T02:43:18.977Z,2.54
2023-04-04T02:45:51.768Z,2.56
2023-04-04T02:48:27.648Z,2.54
2023-04-04T02:51:01.789Z,2.51
2023-04-04T02:53:32.934Z,2.48
2023-04-04T02:56:08.775Z,2.47
2023-04-04T02:58:41.523Z,2.46
2023-04-04T03:01:13.533Z,2.43
2023-04-04T03:03:44.476Z,2.39
2023-04-04T03:06:15.884Z,2.36
2023-04-04T03:08:46.946Z,2.36
2023-04-04T03:11:21.498Z,2.36
2023-04-04T03:13:53.449Z,2.33
2023-04-04T03:16:26.823Z,2.32
2023-04-04T03:18:57.921Z,2.32
2023-04-04T03:21:29.024Z,2.31
2023-04-04T03:24:02.705Z,2.31
2023-04-04T03:26:33.564Z,2.28
2023-04-04T03:29:04.924Z,2.28
2023-04-04T03:31:35.644Z,2.26
2023-04-04T03:34:06.651Z,2.26
2023-04-04T03:36:37.440Z,2.25
2023-04-04T03:39:08.265Z,2.24
2023-04-04T03:41:39.588Z,2.22
2023-04-04T03:44:10.729Z,2.21
2023-04-04T03:46:43.187Z,2.21
2023-04-04T03:49:15.885Z,2.22
2023-04-04T03:51:46.579Z,2.23
2023-04-04T03:54:17.659Z,2.23
2023-04-04T03:56:48.475Z,2.24
2023-04-04T03:59:19.272Z,2.25
2023-04-04T04:01:50.479Z,2.26
2023-04-04T04:04:21.253Z,2.28
2023-04-04T04:06:52.096Z,2.29
2023-04-04T04:09:22.791Z,2.32
2023-04-04T04:11:55.027Z,2.35
2023-04-04T04:14:25.758Z,2.35
2023-04-04T04:16:56.472Z,2.34
2023-04-04T04:19:27.371Z,2.35
2023-04-04T04:21:58.328Z,2.36
2023-04-04T04:24:29.215Z,2.37
2023-04-04T04:27:00.059Z,2.38
2023-04-04T04:29:31.366Z,2.38
2023-04-04T04:32:02.886Z,2.39
2023-04-04T04:34:37.705Z,2.38
2023-04-04T04:37:08.564Z,2.33
2023-04-04T04:39:47.436Z,2.31
2023-04-04T04:42:37.350Z,2.32
2023-04-04T04:45:10.994Z,2.34
2023-04-04T04:47:42.589Z,2.36
2023-04-04T04:50:13.965Z,2.38
2023-04-04T04:52:47.518Z,2.36
2023-04-04T04:55:18.630Z,2.35
2023-04-04T04:57:54.641Z,2.35
2023-04-04T05:00:28.445Z,2.32
2023-04-04T05:03:00.596Z,2.30
2023-04-04T05:05:40.430Z,2.24
2023-04-04T05:08:14.343Z,2.12
2023-04-04T05:10:55.157Z,2.23
2023-04-04T05:13:27.087Z,2.23
2023-04-04T05:15:59.304Z,2.19
2023-04-04T05:18:30.299Z,2.18
2023-04-04T05:21:01.286Z,2.20
2023-04-04T05:23:32.491Z,2.20
2023-04-04T05:26:03.245Z,2.30
2023-04-04T05:28:36.956Z,2.36
2023-04-04T05:31:09.842Z,2.38
2023-04-04T05:33:41.173Z,2.38
2023-04-04T05:36:16.672Z,2.41
2023-04-04T05:38:57.949Z,2.41
2023-04-04T05:41:30.750Z,2.44
2023-04-04T05:44:05.632Z,2.47
2023-04-04T05:46:36.609Z,2.54
2023-04-04T05:49:07.998Z,2.75
2023-04-04T05:51:40.663Z,2.96
2023-04-04T05:54:14.325Z,3.21
2023-04-04T05:56:46.089Z,3.42
2023-04-04T05:59:22.485Z,3.72
2023-04-04T06:01:58.078Z,4.53
2023-04-04T06:04:29.123Z,5.35
2023-04-04T06:07:02.179Z,5.90
2023-04-04T06:09:33.005Z,6.04
2023-04-04T06:12:04.674Z,6.14
2023-04-04T06:14:36.108Z,6.25
2023-04-04T06:17:09.208Z,6.36
2023-04-04T06:19:39.977Z,6.50
2023-04-04T06:22:10.848Z,6.78
2023-04-04T06:24:44.264Z,6.98
2023-04-04T06:27:16.362Z,7.11
2023-04-04T06:29:48.029Z,7.37
2023-04-04T06:32:22.760Z,7.61
2023-04-04T06:34:53.538Z,7.73
2023-04-04T06:37:34.169Z,7.83
2023-04-04T06:40:14.578Z,7.88
2023-04-04T06:42:52.229Z,8.06
2023-04-04T06:45:23.724Z,8.20
2023-04-04T06:47:54.555Z,8.34
2023-04-04T06:50:25.743Z,8.38
2023-04-04T06:52:57.742Z,8.44
2023-04-04T06:55:29.306Z,8.68
2023-04-04T06:58:00.136Z,8.79
2023-04-04T07:00:31.626Z,8.86
2023-04-04T07:03:03.089Z,8.93
2023-04-04T07:05:34.617Z,8.99
2023-04-04T07:08:05.349Z,8.92
2023-04-04T07:10:36.277Z,8.92
2023-04-04T07:13:07.050Z,8.89
2023-04-04T07:15:37.727Z,8.90
2023-04-04T07:18:09.295Z,8.91
2023-04-04T07:20:40.357Z,8.91
2023-04-04T07:23:11.716Z,9.13
2023-04-04T07:25:44.348Z,9.39
2023-04-04T07:28:15.266Z,9.68
2023-04-04T07:30:46.171Z,9.83
2023-04-04T07:33:17.189Z,9.67
2023-04-04T07:35:48.700Z,9.54
2023-04-04T07:38:19.630Z,9.47
2023-04-04T07:40:51.154Z,9.32
2023-04-04T07:43:21.986Z,9.27
2023-04-04T07:45:52.796Z,9.18
2023-04-04T07:48:23.777Z,8.94
2023-04-04T07:50:54.712Z,9.12
2023-04-04T07:53:25.447Z,9.32
2023-04-04T07:55:56.398Z,9.46
2023-04-04T07:58:27.202Z,9.64
2023-04-04T08:00:59.530Z,9.74
2023-04-04T08:03:31.306Z,9.62
2023-04-04T08:06:02.191Z,9.49
2023-04-04T08:08:32.865Z,9.66
2023-04-04T08:11:03.812Z,9.88
2023-04-04T08:13:34.479Z,10.02
2023-04-04T08:16:06.202Z,10.05
2023-04-04T08:18:37.007Z,10.29
2023-04-04T08:21:08.003Z,10.85
2023-04-04T08:23:39.053Z,11.18
2023-04-04T08:26:09.774Z,11.45
2023-04-04T08:28:40.659Z,11.72
2023-04-04T08:31:12.464Z,11.88
2023-04-04T08:33:47.792Z,12.13
2023-04-04T08:36:19.656Z,12.44
2023-04-04T08:38:50.535Z,12.31
2023-04-04T08:41:22.079Z,12.31
2023-04-04T08:43:56.781Z,12.58
2023-04-04T08:46:28.576Z,12.48
2023-04-04T08:49:00.628Z,12.16
2023-04-04T08:51:33.318Z,12.33
2023-04-04T08:54:05.040Z,12.68
2023-04-04T08:56:39.132Z,12.86
2023-04-04T08:59:11.460Z,12.66
2023-04-04T09:01:42.476Z,12.48
2023-04-04T09:04:13.643Z,12.26
2023-04-04T09:06:44.863Z,11.89
2023-04-04T09:09:16.264Z,11.77
2023-04-04T09:11:48.560Z,11.78
2023-04-04T09:14:20.890Z,11.90
2023-04-04T09:16:52.157Z,11.87
2023-04-04T09:19:25.720Z,11.73
2023-04-04T09:21:56.948Z,11.68
2023-04-04T09:24:37.648Z,11.53
2023-04-04T09:27:11.395Z,11.38
2023-04-04T09:29:43.015Z,11.27
2023-04-04T09:32:17.300Z,11.25
2023-04-04T09:34:48.279Z,11.00
2023-04-04T09:37:19.547Z,10.98
2023-04-04T09:39:51.013Z,10.74
2023-04-04T09:42:21.977Z,10.48
2023-04-04T09:44:56.405Z,10.07
2023-04-04T09:47:30.948Z,9.94
2023-04-04T09:50:03.847Z,9.79
2023-04-04T09:52:37.083Z,9.80
2023-04-04T09:55:08.876Z,10.09
2023-04-04T09:57:41.824Z,10.36
2023-04-04T10:00:19.895Z,10.45
2023-04-04T10:02:53.174Z,10.25
2023-04-04T10:05:24.331Z,10.06
2023-04-04T10:07:55.333Z,10.14
2023-04-04T10:10:28.565Z,10.32
2023-04-04T10:13:00.202Z,10.46
2023-04-04T10:15:38.534Z,10.42
2023-04-04T10:18:11.160Z,10.30
2023-04-04T10:20:43.374Z,10.26
2023-04-04T10:23:15.553Z,10.30
2023-04-04T10:25:47.310Z,10.23
2023-04-04T10:28:18.609Z,10.20
2023-04-04T10:31:05.790Z,10.23
2023-04-04T10:33:45.496Z,10.15
2023-04-04T10:36:22.263Z,9.75
2023-04-04T10:39:06.412Z,9.34
2023-04-04T10:41:38.964Z,9.23
2023-04-04T10:44:20.042Z,9.18
2023-04-04T10:46:54.620Z,9.23
2023-04-04T10:49:25.963Z,9.33
2023-04-04T10:51:58.169Z,9.44
2023-04-04T10:54:30.402Z,9.45
2023-04-04T10:57:02.174Z,9.46
2023-04-04T10:59:32.865Z,9.39
2023-04-04T11:02:06.863Z,9.32
2023-04-04T11:04:42.591Z,9.20
2023-04-04T11:07:18.566Z,9.19
2023-04-04T11:09:54.311Z,9.32
2023-04-04T11:12:45.005Z,9.37
2023-04-04T11:15:16.365Z,9.38
2023-04-04T11:18:00.301Z,9.27
2023-04-04T11:20:38.315Z,9.13
2023-04-04T11:23:11.266Z,9.09
2023-04-04T11:25:43.518Z,9.15
2023-04-04T11:28:27.538Z,9.22
2023-04-04T11:31:25.778Z,9.35
2023-04-04T11:34:03.557Z,9.34
2023-04-04T11:36:54.244Z,9.34
2023-04-04T11:39:33.823Z,9.17
2023-04-04T11:42:08.293Z,9.16
2023-04-04T11:45:02.194Z,9.07
2023-04-04T11:47:33.667Z,9.05
2023-04-04T11:50:09.519Z,9.12
2023-04-04T11:52:40.538Z,9.18
2023-04-04T11:55:20.052Z,9.14
2023-04-04T11:57:51.500Z,9.11
2023-04-04T12:00:37.349Z,8.92
2023-04-04T12:03:11.475Z,8.84
2023-04-04T12:05:43.990Z,8.74
2023-04-04T12:08:14.058Z,8.79
2023-04-04T12:10:45.656Z,8.81
2023-04-04T12:13:16.441Z,8.81
2023-04-04T12:15:49.020Z,8.84
2023-04-04T12:18:26.343Z,8.87
2023-04-04T12:20:59.314Z,8.66
2023-04-04T12:23:33.935Z,8.41
2023-04-04T12:26:06.362Z,8.42
2023-04-04T12:28:39.401Z,8.48
2023-04-04T12:31:10.697Z,8.60
2023-04-04T12:33:43.289Z,8.72
2023-04-04T12:36:14.322Z,8.74
2023-04-04T12:41:54.863Z,8.73
2023-04-04T12:44:34.174Z,8.77
2023-04-04T12:47:06.420Z,8.83
2023-04-04T12:49:44.298Z,9.11
2023-04-04T12:52:21.748Z,9.16
2023-04-04T12:55:06.716Z,8.93
2023-04-04T12:57:40.010Z,8.70
2023-04-04T13:00:13.875Z,8.52
2023-04-04T13:02:50.929Z,8.43
2023-04-04T13:05:23.338Z,8.46
2023-04-04T13:08:06.003Z,8.59
2023-04-04T13:11:02.389Z,8.72
2023-04-04T13:13:38.688Z,8.78
2023-04-04T13:16:11.618Z,8.87
2023-04-04T13:18:44.068Z,8.89
2023-04-04T13:21:14.836Z,8.89
2023-04-04T13:23:45.493Z,8.85
2023-04-04T13:26:16.270Z,8.86
2023-04-04T13:28:46.914Z,8.91
2023-04-04T13:31:17.877Z,8.97
2023-04-04T13:33:48.605Z,8.92
2023-04-04T13:36:19.428Z,8.89
2023-04-04T13:38:50.061Z,8.84
2023-04-04T13:41:20.961Z,8.60
2023-04-04T13:43:52.783Z,8.37
2023-04-04T13:46:23.554Z,8.25
2023-04-04T13:48:54.349Z,8.12
2023-04-04T13:51:26.512Z,7.93
2023-04-04T13:53:57.222Z,7.78
2023-04-04T13:56:27.951Z,7.79
2023-04-04T13:58:58.807Z,7.70
2023-04-04T14:01:30.259Z,7.60
2023-04-04T14:04:07.385Z,7.58
2023-04-04T14:06:44.618Z,7.67
2023-04-04T14:09:15.674Z,7.83
2023-04-04T14:11:46.435Z,8.00
2023-04-04T14:14:17.558Z,8.16
2023-04-04T14:16:48.481Z,8.20
2023-04-04T14:19:19.086Z,8.16
2023-04-04T14:21:50.843Z,8.09
2023-04-04T14:24:21.795Z,7.96
2023-04-04T14:26:52.685Z,7.83
2023-04-04T14:29:23.495Z,7.65
2023-04-04T14:31:56.100Z,7.63
2023-04-04T14:34:28.019Z,7.65
2023-04-04T14:36:58.690Z,7.67
2023-04-04T14:39:29.372Z,7.78
2023-04-04T14:42:00.521Z,7.90
2023-04-04T14:44:32.366Z,7.96
2023-04-04T14:47:03.928Z,7.98
2023-04-04T14:49:34.831Z,7.99
2023-04-04T14:52:05.509Z,8.01
2023-04-04T14:54:36.529Z,8.07
2023-04-04T14:57:07.815Z,8.13
2023-04-04T14:59:38.556Z,8.05
2023-04-04T15:02:09.301Z,7.98
2023-04-04T15:04:40.068Z,7.89
2023-04-04T15:07:10.937Z,7.82
2023-04-04T15:09:41.894Z,7.80
2023-04-04T15:12:12.553Z,7.81
2023-04-04T15:14:43.369Z,7.80
2023-04-04T15:17:14.145Z,7.77
2023-04-04T15:19:44.783Z,7.81
2023-04-04T15:22:15.793Z,7.86
2023-04-04T15:24:46.585Z,7.87
2023-04-04T15:27:17.616Z,7.88
2023-04-04T15:29:48.232Z,7.87
2023-04-04T15:32:18.885Z,7.84
2023-04-04T15:34:49.599Z,7.83
2023-04-04T15:37:20.319Z,7.84
2023-04-04T15:39:53.639Z,7.78
2023-04-04T15:42:25.894Z,7.69
2023-04-04T15:44:56.680Z,7.56
2023-04-04T15:47:27.620Z,7.46
2023-04-04T15:49:58.231Z,7.37
2023-04-04T15:52:28.900Z,7.29
2023-04-04T15:54:59.634Z,7.24
2023-04-04T15:57:30.512Z,7.20
2023-04-04T16:00:01.401Z,7.10
2023-04-04T16:02:52.368Z,7.06
2023-04-04T16:05:23.138Z,7.06
2023-04-04T16:07:53.828Z,7.06
2023-04-04T16:10:24.672Z,7.05
2023-04-04T16:12:55.346Z,7.02
2023-04-04T16:15:26.230Z,6.90
2023-04-04T16:17:58.978Z,6.87
2023-04-04T16:20:30.263Z,6.85
2023-04-04T16:23:00.971Z,6.80
2023-04-04T16:25:31.964Z,6.73
2023-04-04T16:28:02.533Z,6.68
2023-04-04T16:30:33.454Z,6.68
2023-04-04T16:33:04.407Z,6.70
2023-04-04T16:35:35.163Z,6.70
2023-04-04T16:38:06.417Z,6.71
2023-04-04T16:40:37.398Z,6.64
2023-04-04T16:43:08.145Z,6.57
2023-04-04T16:45:39.066Z,6.50
2023-04-04T16:48:10.472Z,6.48
2023-04-04T16:50:41.376Z,6.46
2023-04-04T16:53:12.650Z,6.41
2023-04-04T16:55:43.452Z,6.35
2023-04-04T16:58:14.065Z,6.27
2023-04-04T17:00:44.915Z,6.20
2023-04-04T17:03:15.843Z,6.16
2023-04-04T17:05:46.426Z,6.11
2023-04-04T17:08:17.159Z,6.08
2023-04-04T17:10:47.917Z,6.07
2023-04-04T17:13:19.517Z,6.04
2023-04-04T17:15:50.893Z,6.02
2023-04-04T17:18:21.671Z,5.97
2023-04-04T17:20:53.367Z,5.91
2023-04-04T17:23:23.993Z,5.86
2023-04-04T17:25:54.815Z,5.80
2023-04-04T17:28:25.820Z,5.77
2023-04-04T17:30:57.534Z,5.75
2023-04-04T17:33:28.433Z,5.74
2023-04-04T17:35:59.133Z,5.72
2023-04-04T17:38:30.899Z,5.72
2023-04-04T17:41:04.128Z,5.72
2023-04-04T17:43:34.973Z,5.72
2023-04-04T17:46:07.017Z,5.74
2023-04-04T17:48:37.915Z,5.73
2023-04-04T17:51:09.004Z,5.71
2023-04-04T17:53:39.946Z,5.69
2023-04-04T17:56:11.220Z,5.68
2023-04-04T17:58:42.320Z,5.68
2023-04-04T18:01:13.277Z,5.68
2023-04-04T18:03:45.607Z,5.67
2023-04-04T18:06:16.816Z,5.64
2023-04-04T18:08:48.344Z,5.60
2023-04-04T18:11:19.099Z,5.56
2023-04-04T18:13:49.861Z,5.52
2023-04-04T18:16:20.570Z,5.50
2023-04-04T18:18:51.557Z,5.47
2023-04-04T18:21:22.229Z,5.34
2023-04-04T18:23:52.948Z,5.35
2023-04-04T18:26:23.819Z,5.31
2023-04-04T18:28:54.710Z,5.26
2023-04-04T18:31:26.659Z,5.24
2023-04-04T18:33:57.592Z,5.22
2023-04-04T18:36:28.281Z,5.21
2023-04-04T18:39:01.053Z,5.24
2023-04-04T18:41:32.032Z,5.26
2023-04-04T18:44:02.703Z,5.28
2023-04-04T18:46:33.455Z,5.31
2023-04-04T18:49:04.368Z,5.35
2023-04-04T18:51:35.104Z,5.33
2023-04-04T18:54:06.439Z,5.31
2023-04-04T18:56:38.527Z,5.30
2023-04-04T18:59:09.718Z,5.31
2023-04-04T19:01:42.365Z,5.30
2023-04-04T19:04:15.455Z,5.29
2023-04-04T19:06:46.822Z,5.25
2023-04-04T19:09:18.169Z,5.24
2023-04-04T19:11:49.305Z,5.21
2023-04-04T19:14:20.351Z,5.25
2023-04-04T19:16:51.278Z,5.26
2023-04-04T19:19:22.719Z,5.27
2023-04-04T19:21:53.328Z,5.27
2023-04-04T19:24:24.040Z,5.27
2023-04-04T19:26:55.055Z,5.27
2023-04-04T19:29:26.024Z,5.24
2023-04-04T19:31:57.239Z,5.21
2023-04-04T19:34:29.473Z,5.19
2023-04-04T19:37:00.116Z,5.18
2023-04-04T19:39:36.598Z,5.17
2023-04-04T19:42:08.748Z,5.15
2023-04-04T19:44:41.485Z,5.14
2023-04-04T19:47:15.873Z,5.13
2023-04-04T19:49:46.705Z,5.12
2023-04-04T19:52:23.849Z,5.10
2023-04-04T19:54:54.520Z,5.08
2023-04-04T19:57:25.154Z,5.06
2023-04-04T20:00:13.573Z,5.04
2023-04-04T20:02:57.792Z,5.01
2023-04-04T20:06:00.290Z,4.97
2023-04-04T20:08:41.051Z,4.95
2023-04-04T20:11:12.716Z,4.91
2023-04-04T20:13:44.519Z,4.86
2023-04-04T20:16:16.751Z,4.78
2023-04-04T20:18:48.241Z,4.71
2023-04-04T20:21:20.035Z,4.63
2023-04-04T20:23:53.508Z,4.57
2023-04-04T20:26:51.327Z,4.54
2023-04-04T20:29:25.409Z,4.51
2023-04-04T20:31:57.894Z,4.49
2023-04-04T20:34:42.724Z,4.45
2023-04-04T20:37:13.495Z,4.43
2023-04-04T20:39:48.929Z,4.42
2023-04-04T20:42:40.067Z,4.38
2023-04-04T20:45:46.869Z,4.32
2023-04-04T20:48:37.846Z,4.23
2023-04-04T20:51:25.819Z,4.15
2023-04-04T20:53:59.027Z,4.12
2023-04-04T20:56:56.487Z,4.12
2023-04-04T20:59:40.613Z,4.09
2023-04-04T21:02:15.425Z,4.05
2023-04-04T21:04:49.374Z,4.03
2023-04-04T21:07:46.506Z,3.96
2023-04-04T21:10:24.614Z,3.89
2023-04-04T21:12:55.483Z,3.86
2023-04-04T21:15:29.649Z,3.84
2023-04-04T21:18:02.279Z,4.00
2023-04-04T21:21:13.298Z,4.06
2023-04-04T21:23:49.205Z,4.03
2023-04-04T21:26:29.496Z,4.04
2023-04-04T21:29:01.746Z,4.08
2023-04-04T21:31:37.601Z,4.09
2023-04-04T21:34:15.856Z,4.07
2023-04-04T21:36:47.219Z,3.98
2023-04-04T21:39:24.395Z,3.88
2023-04-04T21:41:57.908Z,3.77
2023-04-04T21:44:28.830Z,3.75
2023-04-04T21:46:59.757Z,3.79
2023-04-04T21:49:30.850Z,3.81
2023-04-04T21:52:01.527Z,3.82
2023-04-04T21:54:32.410Z,3.82
2023-04-04T21:57:03.355Z,3.84
2023-04-04T21:59:34.386Z,3.87
2023-04-04T22:02:05.630Z,3.88
2023-04-04T22:04:36.360Z,3.91
2023-04-04T22:07:07.086Z,3.92
2023-04-04T22:09:40.476Z,3.85
2023-04-04T22:12:16.568Z,3.88
2023-04-04T22:14:50.558Z,3.89
2023-04-04T22:17:23.892Z,3.88
2023-04-04T22:19:59.879Z,3.85
2023-04-04T22:22:31.339Z,3.87
2023-04-04T22:25:05.752Z,3.90
2023-04-04T22:27:39.069Z,3.92
2023-04-04T22:30:11.565Z,3.93
2023-04-04T22:32:43.972Z,3.94
2023-04-04T22:35:14.872Z,3.92
2023-04-04T22:37:46.464Z,3.90
2023-04-04T22:40:17.401Z,3.87
2023-04-04T22:42:48.275Z,3.80
2023-04-04T22:45:19.108Z,3.79
2023-04-04T22:47:50.022Z,3.78
2023-04-04T22:50:24.059Z,3.79
2023-04-04T22:52:55.614Z,3.76
2023-04-04T22:55:27.741Z,3.70
2023-04-04T22:57:58.602Z,3.67
2023-04-04T23:00:29.382Z,3.65
2023-04-04T23:03:02.382Z,3.67
2023-04-04T23:05:31.971Z,3.64
2023-04-04T23:08:05.333Z,3.73
2023-04-04T23:10:36.842Z,3.77
2023-04-04T23:13:07.659Z,3.79
2023-04-04T23:15:38.879Z,3.80
2023-04-04T23:18:10.272Z,3.80
2023-04-04T23:20:41.343Z,3.81
2023-04-04T23:23:12.299Z,3.82
2023-04-04T23:25:43.000Z,3.83
2023-04-04T23:28:13.924Z,3.85
2023-04-04T23:30:44.681Z,3.87
2023-04-04T23:33:17.258Z,3.85
2023-04-04T23:35:48.133Z,3.75
2023-04-04T23:38:19.112Z,3.77
2023-04-04T23:40:49.891Z,3.78
2023-04-04T23:43:20.539Z,3.77
2023-04-04T23:45:51.725Z,3.74
2023-04-04T23:48:22.502Z,3.70
2023-04-04T23:50:54.521Z,3.71
2023-04-04T23:53:25.878Z,3.75
2023-04-04T23:55:56.564Z,3.74
2023-04-04T23:58:27.431Z,3.80
